sensor_id;sensor_type;location;lat;lon;timestamp;P1;durP1;ratioP1;P2;durP2;ratioP2
43509;SDS011;29105;57.764;40.952;2023-02-26T00:01:37;10.43;;;4.85;;
43509;SDS011;29105;57.764;40.952;2023-02-26T00:04:04;22.70;;;10.93;;
43509;SDS011;29105;57.764;40.952;2023-02-26T00:06:32;11.18;;;4.60;;
43509;SDS011;29105;57.764;40.952;2023-02-26T00:08:59;19.50;;;9.77;;
43509;SDS011;29105;57.764;40.952;2023-02-26T00:11:25;16.92;;;9.43;;
43509;SDS011;29105;57.764;40.952;2023-02-26T00:13:51;11.25;;;5.95;;
43509;SDS011;29105;57.764;40.952;2023-02-26T00:18:57;13.93;;;6.07;;
43509;SDS011;29105;57.764;40.952;2023-02-26T00:21:25;14.45;;;6.93;;
43509;SDS011;29105;57.764;40.952;2023-02-26T00:23:54;19.02;;;8.98;;
43509;SDS011;29105;57.764;40.952;2023-02-26T00:26:20;20.45;;;10.57;;
43509;SDS011;29105;57.764;40.952;2023-02-26T00:28:47;16.38;;;6.40;;
43509;SDS011;29105;57.764;40.952;2023-02-26T00:31:14;18.60;;;9.60;;
43509;SDS011;29105;57.764;40.952;2023-02-26T00:33:41;16.17;;;7.72;;
43509;SDS011;29105;57.764;40.952;2023-02-26T00:42:01;13.68;;;6.82;;
43509;SDS011;29105;57.764;40.952;2023-02-26T00:44:27;23.20;;;9.65;;
43509;SDS011;29105;57.764;40.952;2023-02-26T00:55:07;19.17;;;7.47;;
43509;SDS011;29105;57.764;40.952;2023-02-26T00:57:32;21.13;;;9.65;;
43509;SDS011;29105;57.764;40.952;2023-02-26T00:59:58;17.20;;;7.25;;
43509;SDS011;29105;57.764;40.952;2023-02-26T01:02:24;21.02;;;9.73;;
43509;SDS011;29105;57.764;40.952;2023-02-26T01:04:50;22.48;;;11.10;;
43509;SDS011;29105;57.764;40.952;2023-02-26T01:07:16;25.58;;;10.75;;
43509;SDS011;29105;57.764;40.952;2023-02-26T01:09:45;23.15;;;10.00;;
43509;SDS011;29105;57.764;40.952;2023-02-26T01:12:11;23.80;;;8.23;;
43509;SDS011;29105;57.764;40.952;2023-02-26T01:14:37;20.77;;;9.13;;
43509;SDS011;29105;57.764;40.952;2023-02-26T01:19:40;15.32;;;7.75;;
43509;SDS011;29105;57.764;40.952;2023-02-26T01:22:32;23.70;;;9.70;;
43509;SDS011;29105;57.764;40.952;2023-02-26T01:24:58;26.25;;;10.77;;
43509;SDS011;29105;57.764;40.952;2023-02-26T01:27:29;17.58;;;7.55;;
43509;SDS011;29105;57.764;40.952;2023-02-26T01:29:55;24.27;;;8.63;;
43509;SDS011;29105;57.764;40.952;2023-02-26T01:38:00;28.60;;;12.80;;
43509;SDS011;29105;57.764;40.952;2023-02-26T01:43:10;20.30;;;9.40;;
43509;SDS011;29105;57.764;40.952;2023-02-26T01:45:44;17.60;;;8.35;;
43509;SDS011;29105;57.764;40.952;2023-02-26T01:48:35;21.67;;;8.88;;
43509;SDS011;29105;57.764;40.952;2023-02-26T01:51:03;31.70;;;13.77;;
43509;SDS011;29105;57.764;40.952;2023-02-26T01:53:29;23.88;;;10.88;;
43509;SDS011;29105;57.764;40.952;2023-02-26T01:55:56;24.08;;;8.18;;
43509;SDS011;29105;57.764;40.952;2023-02-26T01:58:25;19.92;;;7.82;;
43509;SDS011;29105;57.764;40.952;2023-02-26T02:00:52;18.02;;;8.35;;
43509;SDS011;29105;57.764;40.952;2023-02-26T02:03:19;25.83;;;11.65;;
43509;SDS011;29105;57.764;40.952;2023-02-26T02:06:06;19.48;;;8.68;;
43509;SDS011;29105;57.764;40.952;2023-02-26T02:08:33;17.85;;;7.55;;
43509;SDS011;29105;57.764;40.952;2023-02-26T02:11:00;19.25;;;9.23;;
43509;SDS011;29105;57.764;40.952;2023-02-26T02:22:10;16.77;;;8.27;;
43509;SDS011;29105;57.764;40.952;2023-02-26T02:30:33;20.88;;;7.63;;
43509;SDS011;29105;57.764;40.952;2023-02-26T02:33:12;19.25;;;9.23;;
43509;SDS011;29105;57.764;40.952;2023-02-26T02:35:41;18.27;;;6.07;;
43509;SDS011;29105;57.764;40.952;2023-02-26T02:38:15;18.13;;;8.70;;
43509;SDS011;29105;57.764;40.952;2023-02-26T02:40:45;16.17;;;7.57;;
43509;SDS011;29105;57.764;40.952;2023-02-26T02:43:14;18.83;;;10.40;;
43509;SDS011;29105;57.764;40.952;2023-02-26T02:45:42;19.75;;;7.03;;
43509;SDS011;29105;57.764;40.952;2023-02-26T02:48:20;13.52;;;5.43;;
43509;SDS011;29105;57.764;40.952;2023-02-26T02:51:13;15.02;;;7.88;;
43509;SDS011;29105;57.764;40.952;2023-02-26T02:53:44;13.43;;;7.35;;
43509;SDS011;29105;57.764;40.952;2023-02-26T02:56:15;10.43;;;4.82;;
43509;SDS011;29105;57.764;40.952;2023-02-26T02:58:45;15.82;;;6.97;;
43509;SDS011;29105;57.764;40.952;2023-02-26T03:01:15;16.25;;;6.88;;
43509;SDS011;29105;57.764;40.952;2023-02-26T03:03:48;13.88;;;6.43;;
43509;SDS011;29105;57.764;40.952;2023-02-26T03:06:16;8.38;;;4.32;;
43509;SDS011;29105;57.764;40.952;2023-02-26T03:08:42;7.85;;;4.10;;
43509;SDS011;29105;57.764;40.952;2023-02-26T03:11:08;25.65;;;6.95;;
43509;SDS011;29105;57.764;40.952;2023-02-26T03:13:34;11.05;;;4.75;;
43509;SDS011;29105;57.764;40.952;2023-02-26T03:21:26;12.63;;;7.63;;
43509;SDS011;29105;57.764;40.952;2023-02-26T03:29:00;13.65;;;6.03;;
43509;SDS011;29105;57.764;40.952;2023-02-26T03:31:36;17.27;;;7.90;;
43509;SDS011;29105;57.764;40.952;2023-02-26T03:34:20;14.50;;;6.90;;
43509;SDS011;29105;57.764;40.952;2023-02-26T03:36:50;10.02;;;5.75;;
43509;SDS011;29105;57.764;40.952;2023-02-26T03:39:49;13.48;;;4.60;;
43509;SDS011;29105;57.764;40.952;2023-02-26T03:44:50;11.25;;;6.20;;
43509;SDS011;29105;57.764;40.952;2023-02-26T03:47:18;8.75;;;4.07;;
43509;SDS011;29105;57.764;40.952;2023-02-26T03:49:47;15.27;;;7.60;;
43509;SDS011;29105;57.764;40.952;2023-02-26T03:54:44;7.13;;;3.42;;
43509;SDS011;29105;57.764;40.952;2023-02-26T03:57:14;16.45;;;5.55;;
43509;SDS011;29105;57.764;40.952;2023-02-26T03:59:39;9.80;;;5.30;;
43509;SDS011;29105;57.764;40.952;2023-02-26T04:02:16;10.30;;;4.78;;
43509;SDS011;29105;57.764;40.952;2023-02-26T04:04:45;15.25;;;7.80;;
43509;SDS011;29105;57.764;40.952;2023-02-26T04:07:12;12.20;;;4.45;;
43509;SDS011;29105;57.764;40.952;2023-02-26T04:09:43;11.65;;;5.38;;
43509;SDS011;29105;57.764;40.952;2023-02-26T04:12:11;14.48;;;4.40;;
43509;SDS011;29105;57.764;40.952;2023-02-26T04:14:36;14.32;;;6.15;;
43509;SDS011;29105;57.764;40.952;2023-02-26T04:17:02;14.82;;;5.97;;
43509;SDS011;29105;57.764;40.952;2023-02-26T04:19:28;15.57;;;7.22;;
43509;SDS011;29105;57.764;40.952;2023-02-26T04:21:53;16.27;;;6.75;;
43509;SDS011;29105;57.764;40.952;2023-02-26T04:24:19;13.73;;;5.68;;
43509;SDS011;29105;57.764;40.952;2023-02-26T04:26:46;12.55;;;6.43;;
43509;SDS011;29105;57.764;40.952;2023-02-26T04:29:11;18.60;;;9.05;;
43509;SDS011;29105;57.764;40.952;2023-02-26T04:31:37;17.50;;;6.55;;
43509;SDS011;29105;57.764;40.952;2023-02-26T04:34:03;18.33;;;7.20;;
43509;SDS011;29105;57.764;40.952;2023-02-26T04:36:28;15.30;;;6.32;;
43509;SDS011;29105;57.764;40.952;2023-02-26T04:38:54;27.55;;;6.80;;
43509;SDS011;29105;57.764;40.952;2023-02-26T04:41:20;18.92;;;6.60;;
43509;SDS011;29105;57.764;40.952;2023-02-26T04:43:46;18.73;;;8.02;;
43509;SDS011;29105;57.764;40.952;2023-02-26T04:46:12;18.88;;;6.78;;
43509;SDS011;29105;57.764;40.952;2023-02-26T04:48:38;18.50;;;8.05;;
43509;SDS011;29105;57.764;40.952;2023-02-26T04:51:04;19.30;;;9.95;;
43509;SDS011;29105;57.764;40.952;2023-02-26T04:53:29;17.27;;;8.30;;
43509;SDS011;29105;57.764;40.952;2023-02-26T04:55:55;27.38;;;7.65;;
43509;SDS011;29105;57.764;40.952;2023-02-26T04:58:21;12.85;;;5.28;;
43509;SDS011;29105;57.764;40.952;2023-02-26T05:00:47;16.30;;;6.63;;
43509;SDS011;29105;57.764;40.952;2023-02-26T05:03:17;18.27;;;6.93;;
43509;SDS011;29105;57.764;40.952;2023-02-26T05:05:43;19.67;;;8.07;;
43509;SDS011;29105;57.764;40.952;2023-02-26T05:08:10;22.05;;;8.48;;
43509;SDS011;29105;57.764;40.952;2023-02-26T05:10:35;16.40;;;6.35;;
43509;SDS011;29105;57.764;40.952;2023-02-26T05:13:01;21.13;;;8.00;;
43509;SDS011;29105;57.764;40.952;2023-02-26T05:15:27;19.00;;;6.63;;
43509;SDS011;29105;57.764;40.952;2023-02-26T05:17:52;16.13;;;6.22;;
43509;SDS011;29105;57.764;40.952;2023-02-26T05:20:18;15.63;;;6.57;;
43509;SDS011;29105;57.764;40.952;2023-02-26T05:22:45;12.85;;;5.57;;
43509;SDS011;29105;57.764;40.952;2023-02-26T05:25:11;17.90;;;7.90;;
43509;SDS011;29105;57.764;40.952;2023-02-26T05:27:38;25.83;;;10.80;;
43509;SDS011;29105;57.764;40.952;2023-02-26T05:30:05;25.23;;;7.93;;
43509;SDS011;29105;57.764;40.952;2023-02-26T05:32:31;19.23;;;8.75;;
43509;SDS011;29105;57.764;40.952;2023-02-26T05:34:57;20.40;;;7.60;;
43509;SDS011;29105;57.764;40.952;2023-02-26T05:37:23;17.85;;;8.35;;
43509;SDS011;29105;57.764;40.952;2023-02-26T05:39:48;14.50;;;5.07;;
43509;SDS011;29105;57.764;40.952;2023-02-26T05:42:14;13.65;;;5.72;;
43509;SDS011;29105;57.764;40.952;2023-02-26T05:44:40;14.85;;;6.65;;
43509;SDS011;29105;57.764;40.952;2023-02-26T05:47:05;14.07;;;7.45;;
43509;SDS011;29105;57.764;40.952;2023-02-26T05:49:31;16.30;;;6.95;;
43509;SDS011;29105;57.764;40.952;2023-02-26T05:51:57;16.98;;;7.50;;
43509;SDS011;29105;57.764;40.952;2023-02-26T05:54:22;14.32;;;5.75;;
43509;SDS011;29105;57.764;40.952;2023-02-26T05:56:48;17.27;;;6.43;;
43509;SDS011;29105;57.764;40.952;2023-02-26T05:59:14;20.48;;;7.32;;
43509;SDS011;29105;57.764;40.952;2023-02-26T06:01:40;16.17;;;6.40;;
43509;SDS011;29105;57.764;40.952;2023-02-26T06:04:07;14.90;;;6.43;;
43509;SDS011;29105;57.764;40.952;2023-02-26T06:06:33;13.40;;;5.57;;
43509;SDS011;29105;57.764;40.952;2023-02-26T06:08:58;12.68;;;4.55;;
43509;SDS011;29105;57.764;40.952;2023-02-26T06:11:27;15.88;;;6.13;;
43509;SDS011;29105;57.764;40.952;2023-02-26T06:13:53;13.57;;;7.18;;
43509;SDS011;29105;57.764;40.952;2023-02-26T06:16:22;13.27;;;6.95;;
43509;SDS011;29105;57.764;40.952;2023-02-26T06:18:48;9.88;;;3.17;;
43509;SDS011;29105;57.764;40.952;2023-02-26T06:21:14;12.23;;;6.57;;
43509;SDS011;29105;57.764;40.952;2023-02-26T06:23:40;12.55;;;5.57;;
43509;SDS011;29105;57.764;40.952;2023-02-26T06:26:06;12.68;;;5.32;;
43509;SDS011;29105;57.764;40.952;2023-02-26T06:28:32;13.77;;;7.43;;
43509;SDS011;29105;57.764;40.952;2023-02-26T06:30:58;12.10;;;5.70;;
43509;SDS011;29105;57.764;40.952;2023-02-26T06:33:24;9.68;;;3.47;;
43509;SDS011;29105;57.764;40.952;2023-02-26T06:35:50;9.50;;;4.57;;
43509;SDS011;29105;57.764;40.952;2023-02-26T06:38:16;6.38;;;3.97;;
43509;SDS011;29105;57.764;40.952;2023-02-26T06:40:42;14.13;;;5.15;;
43509;SDS011;29105;57.764;40.952;2023-02-26T06:43:07;5.50;;;3.15;;
43509;SDS011;29105;57.764;40.952;2023-02-26T06:45:33;7.47;;;3.75;;
43509;SDS011;29105;57.764;40.952;2023-02-26T06:47:59;7.93;;;3.40;;
43509;SDS011;29105;57.764;40.952;2023-02-26T06:50:25;12.65;;;4.35;;
43509;SDS011;29105;57.764;40.952;2023-02-26T06:52:50;9.38;;;3.40;;
43509;SDS011;29105;57.764;40.952;2023-02-26T06:55:16;6.43;;;3.05;;
43509;SDS011;29105;57.764;40.952;2023-02-26T06:57:42;6.20;;;3.50;;
43509;SDS011;29105;57.764;40.952;2023-02-26T07:00:08;7.50;;;3.72;;
43509;SDS011;29105;57.764;40.952;2023-02-26T07:02:34;10.00;;;5.30;;
43509;SDS011;29105;57.764;40.952;2023-02-26T07:05:00;9.82;;;4.55;;
43509;SDS011;29105;57.764;40.952;2023-02-26T07:07:28;8.95;;;4.63;;
43509;SDS011;29105;57.764;40.952;2023-02-26T07:09:54;7.03;;;3.28;;
43509;SDS011;29105;57.764;40.952;2023-02-26T07:12:19;8.25;;;4.32;;
43509;SDS011;29105;57.764;40.952;2023-02-26T07:14:45;9.23;;;5.70;;
43509;SDS011;29105;57.764;40.952;2023-02-26T07:17:11;7.22;;;3.25;;
43509;SDS011;29105;57.764;40.952;2023-02-26T07:19:45;6.38;;;3.08;;
43509;SDS011;29105;57.764;40.952;2023-02-26T07:22:14;6.45;;;2.97;;
43509;SDS011;29105;57.764;40.952;2023-02-26T07:24:41;8.68;;;3.92;;
43509;SDS011;29105;57.764;40.952;2023-02-26T07:27:07;5.85;;;2.58;;
43509;SDS011;29105;57.764;40.952;2023-02-26T07:29:33;8.00;;;3.53;;
43509;SDS011;29105;57.764;40.952;2023-02-26T07:31:58;8.98;;;4.25;;
43509;SDS011;29105;57.764;40.952;2023-02-26T07:34:24;5.25;;;2.70;;
43509;SDS011;29105;57.764;40.952;2023-02-26T07:36:49;6.80;;;2.53;;
43509;SDS011;29105;57.764;40.952;2023-02-26T07:39:15;6.53;;;2.80;;
43509;SDS011;29105;57.764;40.952;2023-02-26T07:41:41;4.82;;;2.03;;
43509;SDS011;29105;57.764;40.952;2023-02-26T07:44:07;5.90;;;2.33;;
43509;SDS011;29105;57.764;40.952;2023-02-26T07:46:32;10.07;;;4.90;;
43509;SDS011;29105;57.764;40.952;2023-02-26T07:48:58;11.40;;;2.50;;
43509;SDS011;29105;57.764;40.952;2023-02-26T07:51:24;4.00;;;2.15;;
43509;SDS011;29105;57.764;40.952;2023-02-26T07:53:49;3.22;;;1.63;;
43509;SDS011;29105;57.764;40.952;2023-02-26T07:56:15;6.00;;;1.20;;
43509;SDS011;29105;57.764;40.952;2023-02-26T07:58:41;1.85;;;1.10;;
43509;SDS011;29105;57.764;40.952;2023-02-26T08:01:06;2.75;;;1.27;;
43509;SDS011;29105;57.764;40.952;2023-02-26T08:03:32;6.22;;;2.35;;
43509;SDS011;29105;57.764;40.952;2023-02-26T08:05:58;4.15;;;1.33;;
43509;SDS011;29105;57.764;40.952;2023-02-26T08:08:25;2.90;;;1.05;;
43509;SDS011;29105;57.764;40.952;2023-02-26T08:10:51;2.15;;;1.45;;
43509;SDS011;29105;57.764;40.952;2023-02-26T08:13:17;1.98;;;1.25;;
43509;SDS011;29105;57.764;40.952;2023-02-26T08:15:43;1.73;;;0.60;;
43509;SDS011;29105;57.764;40.952;2023-02-26T08:18:09;5.60;;;1.42;;
43509;SDS011;29105;57.764;40.952;2023-02-26T08:20:35;5.13;;;1.27;;
43509;SDS011;29105;57.764;40.952;2023-02-26T08:23:01;2.05;;;0.70;;
43509;SDS011;29105;57.764;40.952;2023-02-26T08:25:27;3.47;;;1.85;;
43509;SDS011;29105;57.764;40.952;2023-02-26T08:27:52;4.40;;;2.38;;
43509;SDS011;29105;57.764;40.952;2023-02-26T08:30:18;4.55;;;1.98;;
43509;SDS011;29105;57.764;40.952;2023-02-26T08:32:44;5.43;;;2.47;;
43509;SDS011;29105;57.764;40.952;2023-02-26T08:35:10;3.83;;;1.50;;
43509;SDS011;29105;57.764;40.952;2023-02-26T08:37:35;4.72;;;1.88;;
43509;SDS011;29105;57.764;40.952;2023-02-26T08:40:03;8.52;;;1.60;;
43509;SDS011;29105;57.764;40.952;2023-02-26T08:42:33;0.80;;;0.68;;
43509;SDS011;29105;57.764;40.952;2023-02-26T08:44:59;3.60;;;1.20;;
43509;SDS011;29105;57.764;40.952;2023-02-26T08:47:24;3.78;;;0.85;;
43509;SDS011;29105;57.764;40.952;2023-02-26T08:49:50;2.15;;;0.80;;
43509;SDS011;29105;57.764;40.952;2023-02-26T08:52:16;1.83;;;1.20;;
43509;SDS011;29105;57.764;40.952;2023-02-26T08:54:42;3.40;;;1.40;;
43509;SDS011;29105;57.764;40.952;2023-02-26T08:57:07;4.97;;;1.35;;
43509;SDS011;29105;57.764;40.952;2023-02-26T08:59:33;5.68;;;0.82;;
43509;SDS011;29105;57.764;40.952;2023-02-26T09:01:59;3.97;;;1.45;;
43509;SDS011;29105;57.764;40.952;2023-02-26T09:04:24;3.10;;;1.15;;
43509;SDS011;29105;57.764;40.952;2023-02-26T09:06:50;9.73;;;1.38;;
43509;SDS011;29105;57.764;40.952;2023-02-26T09:09:17;4.80;;;0.77;;
43509;SDS011;29105;57.764;40.952;2023-02-26T09:11:43;3.03;;;1.40;;
43509;SDS011;29105;57.764;40.952;2023-02-26T09:14:09;1.48;;;0.90;;
43509;SDS011;29105;57.764;40.952;2023-02-26T09:16:35;1.65;;;0.90;;
43509;SDS011;29105;57.764;40.952;2023-02-26T09:19:01;1.30;;;0.80;;
43509;SDS011;29105;57.764;40.952;2023-02-26T09:21:28;1.17;;;0.80;;
43509;SDS011;29105;57.764;40.952;2023-02-26T09:23:54;5.90;;;1.30;;
43509;SDS011;29105;57.764;40.952;2023-02-26T09:26:20;8.57;;;0.88;;
43509;SDS011;29105;57.764;40.952;2023-02-26T09:28:46;2.88;;;1.20;;
43509;SDS011;29105;57.764;40.952;2023-02-26T09:31:11;1.05;;;0.63;;
43509;SDS011;29105;57.764;40.952;2023-02-26T09:33:37;1.98;;;1.10;;
43509;SDS011;29105;57.764;40.952;2023-02-26T09:36:03;1.63;;;0.60;;
43509;SDS011;29105;57.764;40.952;2023-02-26T09:38:29;2.55;;;1.33;;
43509;SDS011;29105;57.764;40.952;2023-02-26T09:40:59;1.30;;;0.50;;
43509;SDS011;29105;57.764;40.952;2023-02-26T09:51:58;2.25;;;1.30;;
43509;SDS011;29105;57.764;40.952;2023-02-26T09:54:45;1.05;;;0.85;;
43509;SDS011;29105;57.764;40.952;2023-02-26T09:57:14;0.82;;;0.60;;
43509;SDS011;29105;57.764;40.952;2023-02-26T09:59:54;2.05;;;1.10;;
43509;SDS011;29105;57.764;40.952;2023-02-26T10:08:25;3.53;;;2.20;;
43509;SDS011;29105;57.764;40.952;2023-02-26T10:18:44;1.85;;;1.02;;
43509;SDS011;29105;57.764;40.952;2023-02-26T10:21:31;3.42;;;2.08;;
43509;SDS011;29105;57.764;40.952;2023-02-26T10:24:05;3.00;;;1.13;;
43509;SDS011;29105;57.764;40.952;2023-02-26T10:26:37;8.30;;;1.40;;
43509;SDS011;29105;57.764;40.952;2023-02-26T10:31:51;3.35;;;1.05;;
43509;SDS011;29105;57.764;40.952;2023-02-26T10:42:26;2.72;;;1.65;;
43509;SDS011;29105;57.764;40.952;2023-02-26T10:50:12;5.30;;;2.45;;
43509;SDS011;29105;57.764;40.952;2023-02-26T10:52:40;3.33;;;2.00;;
43509;SDS011;29105;57.764;40.952;2023-02-26T10:58:04;3.33;;;1.90;;
43509;SDS011;29105;57.764;40.952;2023-02-26T11:00:35;3.75;;;1.92;;
43509;SDS011;29105;57.764;40.952;2023-02-26T11:03:02;2.45;;;1.60;;
43509;SDS011;29105;57.764;40.952;2023-02-26T11:05:29;3.75;;;1.90;;
43509;SDS011;29105;57.764;40.952;2023-02-26T11:08:00;3.17;;;1.85;;
43509;SDS011;29105;57.764;40.952;2023-02-26T11:10:51;2.45;;;1.60;;
43509;SDS011;29105;57.764;40.952;2023-02-26T11:13:24;4.13;;;2.08;;
43509;SDS011;29105;57.764;40.952;2023-02-26T11:15:52;5.20;;;2.72;;
43509;SDS011;29105;57.764;40.952;2023-02-26T11:18:24;1.00;;;0.73;;
43509;SDS011;29105;57.764;40.952;2023-02-26T11:20:53;5.93;;;2.65;;
43509;SDS011;29105;57.764;40.952;2023-02-26T11:23:21;4.30;;;2.65;;
43509;SDS011;29105;57.764;40.952;2023-02-26T11:26:08;3.35;;;1.52;;
43509;SDS011;29105;57.764;40.952;2023-02-26T11:28:43;5.30;;;2.80;;
43509;SDS011;29105;57.764;40.952;2023-02-26T11:31:11;3.60;;;1.67;;
43509;SDS011;29105;57.764;40.952;2023-02-26T11:33:42;4.93;;;2.75;;
43509;SDS011;29105;57.764;40.952;2023-02-26T11:36:19;2.42;;;1.25;;
43509;SDS011;29105;57.764;40.952;2023-02-26T11:38:46;3.63;;;1.75;;
43509;SDS011;29105;57.764;40.952;2023-02-26T11:41:21;3.00;;;1.63;;
43509;SDS011;29105;57.764;40.952;2023-02-26T11:43:50;6.00;;;3.22;;
43509;SDS011;29105;57.764;40.952;2023-02-26T11:46:27;8.20;;;3.55;;
43509;SDS011;29105;57.764;40.952;2023-02-26T11:48:54;6.50;;;2.72;;
43509;SDS011;29105;57.764;40.952;2023-02-26T11:51:21;4.22;;;2.17;;
43509;SDS011;29105;57.764;40.952;2023-02-26T11:53:54;7.28;;;2.83;;
43509;SDS011;29105;57.764;40.952;2023-02-26T11:59:17;2.90;;;1.77;;
43509;SDS011;29105;57.764;40.952;2023-02-26T12:01:44;4.15;;;2.15;;
43509;SDS011;29105;57.764;40.952;2023-02-26T12:04:12;3.30;;;2.13;;
43509;SDS011;29105;57.764;40.952;2023-02-26T12:06:39;3.47;;;1.58;;
43509;SDS011;29105;57.764;40.952;2023-02-26T12:09:12;4.57;;;2.30;;
43509;SDS011;29105;57.764;40.952;2023-02-26T12:17:07;5.28;;;3.65;;
43509;SDS011;29105;57.764;40.952;2023-02-26T12:33:47;5.88;;;2.30;;
43509;SDS011;29105;57.764;40.952;2023-02-26T12:39:31;4.70;;;1.98;;
43509;SDS011;29105;57.764;40.952;2023-02-26T13:01:24;2.00;;;1.52;;
43509;SDS011;29105;57.764;40.952;2023-02-26T13:18:07;3.15;;;1.50;;
43509;SDS011;29105;57.764;40.952;2023-02-26T13:20:41;3.63;;;0.88;;
43509;SDS011;29105;57.764;40.952;2023-02-26T13:23:29;4.05;;;1.88;;
43509;SDS011;29105;57.764;40.952;2023-02-26T13:25:59;2.05;;;1.20;;
43509;SDS011;29105;57.764;40.952;2023-02-26T13:28:42;1.08;;;0.70;;
43509;SDS011;29105;57.764;40.952;2023-02-26T13:31:13;1.52;;;0.60;;
43509;SDS011;29105;57.764;40.952;2023-02-26T13:33:41;2.05;;;1.55;;
43509;SDS011;29105;57.764;40.952;2023-02-26T13:36:08;3.35;;;1.52;;
43509;SDS011;29105;57.764;40.952;2023-02-26T13:41:21;3.47;;;2.17;;
43509;SDS011;29105;57.764;40.952;2023-02-26T13:51:47;4.30;;;1.75;;
43509;SDS011;29105;57.764;40.952;2023-02-26T13:56:54;2.75;;;1.85;;
43509;SDS011;29105;57.764;40.952;2023-02-26T13:59:45;4.30;;;1.67;;
43509;SDS011;29105;57.764;40.952;2023-02-26T14:04:51;4.72;;;1.77;;
43509;SDS011;29105;57.764;40.952;2023-02-26T14:10:23;2.72;;;1.77;;
43509;SDS011;29105;57.764;40.952;2023-02-26T14:13:01;1.50;;;1.05;;
43509;SDS011;29105;57.764;40.952;2023-02-26T14:18:18;2.03;;;1.15;;
43509;SDS011;29105;57.764;40.952;2023-02-26T14:20:50;1.58;;;1.13;;
43509;SDS011;29105;57.764;40.952;2023-02-26T14:23:34;3.30;;;1.35;;
43509;SDS011;29105;57.764;40.952;2023-02-26T14:26:02;3.67;;;1.25;;
43509;SDS011;29105;57.764;40.952;2023-02-26T14:28:34;4.57;;;1.30;;
43509;SDS011;29105;57.764;40.952;2023-02-26T14:36:29;5.60;;;1.80;;
43509;SDS011;29105;57.764;40.952;2023-02-26T14:38:59;1.95;;;1.17;;
43509;SDS011;29105;57.764;40.952;2023-02-26T14:41:33;2.33;;;0.77;;
43509;SDS011;29105;57.764;40.952;2023-02-26T14:46:37;1.65;;;0.68;;
43509;SDS011;29105;57.764;40.952;2023-02-26T14:49:04;7.15;;;0.75;;
43509;SDS011;29105;57.764;40.952;2023-02-26T14:51:45;4.47;;;1.08;;
43509;SDS011;29105;57.764;40.952;2023-02-26T15:00:11;1.60;;;0.65;;
43509;SDS011;29105;57.764;40.952;2023-02-26T15:21:09;1.25;;;0.35;;
43509;SDS011;29105;57.764;40.952;2023-02-26T15:26:32;0.90;;;0.52;;
43509;SDS011;29105;57.764;40.952;2023-02-26T15:29:02;1.27;;;0.57;;
43509;SDS011;29105;57.764;40.952;2023-02-26T15:31:31;1.20;;;0.77;;
43509;SDS011;29105;57.764;40.952;2023-02-26T15:33:59;1.15;;;0.60;;
43509;SDS011;29105;57.764;40.952;2023-02-26T15:36:27;4.78;;;1.02;;
43509;SDS011;29105;57.764;40.952;2023-02-26T15:38:54;0.52;;;0.38;;
43509;SDS011;29105;57.764;40.952;2023-02-26T15:41:21;1.00;;;0.68;;
43509;SDS011;29105;57.764;40.952;2023-02-26T15:43:49;0.60;;;0.50;;
43509;SDS011;29105;57.764;40.952;2023-02-26T15:46:16;0.52;;;0.38;;
43509;SDS011;29105;57.764;40.952;2023-02-26T15:48:44;1.75;;;0.77;;
43509;SDS011;29105;57.764;40.952;2023-02-26T15:51:10;0.73;;;0.40;;
43509;SDS011;29105;57.764;40.952;2023-02-26T15:53:40;2.22;;;0.90;;
43509;SDS011;29105;57.764;40.952;2023-02-26T15:56:15;2.22;;;1.00;;
43509;SDS011;29105;57.764;40.952;2023-02-26T15:58:55;2.00;;;0.57;;
43509;SDS011;29105;57.764;40.952;2023-02-26T16:01:25;1.88;;;0.70;;
43509;SDS011;29105;57.764;40.952;2023-02-26T16:03:52;1.05;;;0.40;;
43509;SDS011;29105;57.764;40.952;2023-02-26T16:08:52;1.85;;;0.70;;
43509;SDS011;29105;57.764;40.952;2023-02-26T16:11:17;2.33;;;0.82;;
43509;SDS011;29105;57.764;40.952;2023-02-26T16:13:44;0.43;;;0.32;;
43509;SDS011;29105;57.764;40.952;2023-02-26T16:16:35;1.23;;;0.73;;
43509;SDS011;29105;57.764;40.952;2023-02-26T16:19:20;1.25;;;0.63;;
43509;SDS011;29105;57.764;40.952;2023-02-26T16:22:29;0.73;;;0.43;;
43509;SDS011;29105;57.764;40.952;2023-02-26T16:25:23;1.13;;;0.70;;
43509;SDS011;29105;57.764;40.952;2023-02-26T16:28:00;2.00;;;0.88;;
43509;SDS011;29105;57.764;40.952;2023-02-26T16:30:36;1.40;;;0.80;;
43509;SDS011;29105;57.764;40.952;2023-02-26T16:33:04;1.85;;;1.33;;
43509;SDS011;29105;57.764;40.952;2023-02-26T16:35:36;2.22;;;0.82;;
43509;SDS011;29105;57.764;40.952;2023-02-26T16:38:11;2.05;;;1.02;;
43509;SDS011;29105;57.764;40.952;2023-02-26T16:40:56;1.30;;;0.70;;
43509;SDS011;29105;57.764;40.952;2023-02-26T16:46:03;1.25;;;0.93;;
43509;SDS011;29105;57.764;40.952;2023-02-26T16:51:07;1.88;;;0.77;;
43509;SDS011;29105;57.764;40.952;2023-02-26T16:56:16;3.25;;;1.08;;
43509;SDS011;29105;57.764;40.952;2023-02-26T16:58:55;1.67;;;0.90;;
43509;SDS011;29105;57.764;40.952;2023-02-26T17:01:51;1.70;;;0.80;;
43509;SDS011;29105;57.764;40.952;2023-02-26T17:04:38;3.03;;;1.48;;
43509;SDS011;29105;57.764;40.952;2023-02-26T17:07:05;1.17;;;0.77;;
43509;SDS011;29105;57.764;40.952;2023-02-26T17:09:40;1.42;;;0.82;;
43509;SDS011;29105;57.764;40.952;2023-02-26T17:13:00;1.13;;;0.63;;
43509;SDS011;29105;57.764;40.952;2023-02-26T17:15:26;1.13;;;0.50;;
43509;SDS011;29105;57.764;40.952;2023-02-26T17:17:54;1.30;;;0.70;;
43509;SDS011;29105;57.764;40.952;2023-02-26T17:20:24;2.95;;;0.77;;
43509;SDS011;29105;57.764;40.952;2023-02-26T17:22:50;2.47;;;1.08;;
43509;SDS011;29105;57.764;40.952;2023-02-26T17:25:16;1.02;;;0.40;;
43509;SDS011;29105;57.764;40.952;2023-02-26T17:27:43;2.38;;;0.98;;
43509;SDS011;29105;57.764;40.952;2023-02-26T17:30:10;2.15;;;0.98;;
43509;SDS011;29105;57.764;40.952;2023-02-26T17:32:40;1.73;;;1.20;;
43509;SDS011;29105;57.764;40.952;2023-02-26T17:35:06;1.73;;;0.57;;
43509;SDS011;29105;57.764;40.952;2023-02-26T17:37:33;3.05;;;1.02;;
43509;SDS011;29105;57.764;40.952;2023-02-26T17:40:00;1.88;;;1.00;;
43509;SDS011;29105;57.764;40.952;2023-02-26T17:42:26;2.85;;;0.65;;
43509;SDS011;29105;57.764;40.952;2023-02-26T17:44:52;1.77;;;1.05;;
43509;SDS011;29105;57.764;40.952;2023-02-26T17:47:24;1.60;;;0.73;;
43509;SDS011;29105;57.764;40.952;2023-02-26T17:49:50;0.43;;;0.28;;
43509;SDS011;29105;57.764;40.952;2023-02-26T17:52:18;2.55;;;0.60;;
43509;SDS011;29105;57.764;40.952;2023-02-26T17:54:43;1.63;;;0.90;;
43509;SDS011;29105;57.764;40.952;2023-02-26T17:57:12;1.33;;;0.85;;
43509;SDS011;29105;57.764;40.952;2023-02-26T17:59:41;1.15;;;0.80;;
43509;SDS011;29105;57.764;40.952;2023-02-26T18:02:13;2.30;;;1.13;;
43509;SDS011;29105;57.764;40.952;2023-02-26T18:04:46;1.55;;;0.55;;
43509;SDS011;29105;57.764;40.952;2023-02-26T18:07:13;4.18;;;1.02;;
43509;SDS011;29105;57.764;40.952;2023-02-26T18:09:41;2.40;;;1.08;;
43509;SDS011;29105;57.764;40.952;2023-02-26T18:12:10;1.83;;;1.00;;
43509;SDS011;29105;57.764;40.952;2023-02-26T18:14:40;0.65;;;0.38;;
43509;SDS011;29105;57.764;40.952;2023-02-26T18:17:09;3.15;;;0.90;;
43509;SDS011;29105;57.764;40.952;2023-02-26T18:19:41;3.53;;;0.70;;
43509;SDS011;29105;57.764;40.952;2023-02-26T18:22:16;2.92;;;1.42;;
43509;SDS011;29105;57.764;40.952;2023-02-26T18:24:43;5.22;;;0.85;;
43509;SDS011;29105;57.764;40.952;2023-02-26T18:27:16;1.38;;;0.60;;